createdAt,value
2022-08-03T00:01:43.910Z,1.63
2022-08-03T00:04:11.987Z,1.30
2022-08-03T00:06:39.734Z,1.48
2022-08-03T00:09:09.373Z,1.52
2022-08-03T00:11:37.232Z,2.05
2022-08-03T00:14:05.867Z,1.48
2022-08-03T00:16:33.647Z,1.50
2022-08-03T00:19:01.528Z,1.65
2022-08-03T00:21:29.355Z,1.10
2022-08-03T00:23:57.255Z,1.50
2022-08-03T00:26:26.346Z,1.50
2022-08-03T00:28:54.184Z,1.45
2022-08-03T00:31:28.408Z,1.67
2022-08-03T00:34:09.096Z,1.20
2022-08-03T00:36:36.885Z,1.40
2022-08-03T00:39:04.760Z,1.50
2022-08-03T00:41:33.918Z,1.67
2022-08-03T00:44:01.664Z,1.80
2022-08-03T00:46:29.594Z,1.55
2022-08-03T00:48:57.590Z,1.88
2022-08-03T00:51:26.257Z,1.40
2022-08-03T00:53:54.288Z,1.50
2022-08-03T00:56:22.188Z,1.75
2022-08-03T00:58:52.935Z,1.40
2022-08-03T01:01:20.804Z,1.50
2022-08-03T01:03:48.756Z,1.38
2022-08-03T01:06:19.391Z,1.50
2022-08-03T01:08:53.804Z,1.40
2022-08-03T01:11:32.531Z,1.52
2022-08-03T01:14:18.838Z,1.40
2022-08-03T01:16:56.911Z,1.23
2022-08-03T01:19:47.133Z,1.52
2022-08-03T01:22:37.522Z,1.80
2022-08-03T01:25:14.333Z,1.30
2022-08-03T01:27:54.972Z,1.55
2022-08-03T01:30:28.843Z,1.45
2022-08-03T01:33:01.973Z,1.90
2022-08-03T01:35:46.511Z,1.70
2022-08-03T01:38:16.361Z,1.83
2022-08-03T01:40:45.960Z,1.77
2022-08-03T01:43:58.952Z,1.50
2022-08-03T01:46:09.050Z,1.60
2022-08-03T01:48:38.091Z,1.63
2022-08-03T01:51:09.274Z,1.58
2022-08-03T01:53:38.510Z,1.48
2022-08-03T01:56:07.653Z,2.03
2022-08-03T01:58:37.080Z,2.78
2022-08-03T02:01:09.388Z,1.77
2022-08-03T02:03:58.108Z,2.58
2022-08-03T02:07:01.507Z,1.92
2022-08-03T02:09:22.000Z,2.10
2022-08-03T02:11:51.330Z,2.30
2022-08-03T02:14:21.611Z,2.47
2022-08-03T02:16:51.920Z,1.92
2022-08-03T02:19:20.061Z,2.15
2022-08-03T02:21:56.530Z,1.85
2022-08-03T02:24:29.617Z,1.58
2022-08-03T02:26:59.011Z,1.85
2022-08-03T02:29:39.315Z,1.67
2022-08-03T02:32:15.112Z,1.42
2022-08-03T02:34:47.960Z,1.70
2022-08-03T02:37:18.893Z,1.48
2022-08-03T02:39:48.310Z,1.50
2022-08-03T02:42:21.022Z,1.27
2022-08-03T02:44:51.562Z,1.90
2022-08-03T02:47:21.670Z,1.40
2022-08-03T02:49:52.453Z,1.25
2022-08-03T02:52:23.521Z,1.42
2022-08-03T02:54:55.312Z,1.70
2022-08-03T02:57:26.109Z,1.52
2022-08-03T02:59:55.610Z,1.58
2022-08-03T03:02:25.549Z,1.92
2022-08-03T03:05:52.240Z,1.63
2022-08-03T03:07:52.110Z,1.90
2022-08-03T03:10:23.265Z,1.70
2022-08-03T03:12:53.029Z,1.95
2022-08-03T03:15:21.310Z,1.70
2022-08-03T03:17:52.005Z,1.98
2022-08-03T03:20:29.544Z,2.13
2022-08-03T03:23:01.146Z,1.67
2022-08-03T03:25:31.260Z,1.95
2022-08-03T03:27:59.539Z,1.73
2022-08-03T03:30:28.062Z,2.00
2022-08-03T03:32:58.842Z,2.50
2022-08-03T03:35:27.966Z,2.50
2022-08-03T03:37:55.850Z,2.42
2022-08-03T03:40:24.081Z,1.60
2022-08-03T03:42:52.404Z,2.10
2022-08-03T03:45:20.989Z,2.33
2022-08-03T03:47:49.618Z,2.50
2022-08-03T03:50:19.668Z,2.20
2022-08-03T03:52:47.613Z,2.30
2022-08-03T03:55:17.993Z,2.13
2022-08-03T03:57:45.891Z,1.90
2022-08-03T04:00:15.773Z,2.00
2022-08-03T04:02:43.889Z,1.95
2022-08-03T04:05:30.944Z,1.70
2022-08-03T04:08:21.678Z,1.80
2022-08-03T04:11:02.679Z,1.80
2022-08-03T04:13:34.304Z,1.60
2022-08-03T04:16:03.468Z,1.70
2022-08-03T04:18:33.239Z,1.45
2022-08-03T04:21:03.968Z,1.48
2022-08-03T04:23:37.319Z,1.52
2022-08-03T04:26:08.270Z,2.15
2022-08-03T04:28:37.740Z,1.50
2022-08-03T04:31:07.718Z,1.50
2022-08-03T04:33:39.270Z,2.08
2022-08-03T04:36:10.011Z,2.40
2022-08-03T04:38:44.432Z,2.22
2022-08-03T04:41:13.309Z,2.40
2022-08-03T04:43:42.064Z,2.40
2022-08-03T04:46:10.629Z,2.20
2022-08-03T04:48:41.282Z,2.28
2022-08-03T04:51:13.230Z,2.35
2022-08-03T04:53:44.163Z,2.20
2022-08-03T04:56:12.417Z,2.45
2022-08-03T04:58:40.466Z,2.00
2022-08-03T05:01:08.424Z,2.20
2022-08-03T05:03:36.542Z,2.00
2022-08-03T05:06:09.983Z,1.88
2022-08-03T05:08:47.036Z,2.55
2022-08-03T05:11:16.948Z,2.00
2022-08-03T05:13:45.460Z,1.63
2022-08-03T05:16:14.150Z,1.80
2022-08-03T05:18:42.355Z,1.80
2022-08-03T05:21:10.693Z,1.67
2022-08-03T05:23:38.477Z,1.70
2022-08-03T05:26:07.801Z,1.90
2022-08-03T05:28:35.719Z,1.92
2022-08-03T05:31:03.511Z,2.10
2022-08-03T05:33:31.391Z,1.90
2022-08-03T05:36:03.577Z,2.28
2022-08-03T05:38:35.045Z,3.28
2022-08-03T05:41:21.021Z,3.15
2022-08-03T05:43:54.690Z,3.30
2022-08-03T05:46:23.272Z,3.17
2022-08-03T05:48:51.542Z,2.83
2022-08-03T05:51:19.469Z,2.22
2022-08-03T05:53:47.369Z,2.42
2022-08-03T05:56:16.655Z,2.30
2022-08-03T05:58:48.177Z,2.45
2022-08-03T06:01:18.478Z,2.45
2022-08-03T06:03:46.850Z,2.15
2022-08-03T06:06:14.999Z,2.38
2022-08-03T06:08:43.768Z,2.90
2022-08-03T06:11:12.097Z,3.00
2022-08-03T06:13:40.403Z,3.03
2022-08-03T06:16:08.341Z,3.00
2022-08-03T06:18:38.270Z,3.08
2022-08-03T06:21:14.464Z,2.83
2022-08-03T06:23:53.062Z,3.08
2022-08-03T06:26:23.793Z,2.65
2022-08-03T06:28:53.942Z,2.45
2022-08-03T06:31:33.078Z,2.13
2022-08-03T06:34:32.657Z,2.00
2022-08-03T06:36:58.494Z,2.10
2022-08-03T06:39:29.796Z,1.67
2022-08-03T06:41:58.285Z,1.60
2022-08-03T06:44:26.421Z,1.60
2022-08-03T06:46:54.463Z,1.67
2022-08-03T06:49:23.696Z,1.35
2022-08-03T06:52:03.277Z,1.50
2022-08-03T06:54:33.361Z,1.27
2022-08-03T06:57:01.565Z,1.42
2022-08-03T07:00:08.706Z,1.25
2022-08-03T07:02:19.532Z,1.40
2022-08-03T07:04:49.426Z,1.60
2022-08-03T07:07:18.142Z,1.42
2022-08-03T07:09:57.367Z,1.35
2022-08-03T07:12:26.984Z,1.50
2022-08-03T07:14:59.750Z,1.75
2022-08-03T07:17:28.684Z,1.48
2022-08-03T07:19:58.235Z,1.25
2022-08-03T07:22:26.335Z,1.30
2022-08-03T07:24:54.367Z,1.35
2022-08-03T07:27:22.751Z,1.65
2022-08-03T07:29:50.447Z,1.50
2022-08-03T07:32:18.508Z,1.85
2022-08-03T07:34:46.852Z,2.38
2022-08-03T07:37:16.289Z,2.13
2022-08-03T07:39:44.888Z,1.38
2022-08-03T07:42:12.652Z,1.23
2022-08-03T07:44:40.769Z,1.42
2022-08-03T07:47:09.167Z,1.83
2022-08-03T07:49:40.987Z,1.23
2022-08-03T07:52:29.238Z,1.65
2022-08-03T07:54:58.508Z,1.25
2022-08-03T07:57:26.470Z,1.10
2022-08-03T07:59:57.093Z,1.35
2022-08-03T08:02:39.921Z,1.25
2022-08-03T08:05:08.703Z,1.15
2022-08-03T08:07:36.858Z,1.33
2022-08-03T08:10:07.910Z,1.30
2022-08-03T08:12:36.070Z,1.42
2022-08-03T08:15:04.702Z,1.40
2022-08-03T08:17:41.013Z,1.40
2022-08-03T08:20:10.200Z,1.55
2022-08-03T08:22:37.947Z,1.63
2022-08-03T08:25:10.394Z,1.30
2022-08-03T08:28:29.925Z,1.38
2022-08-03T08:30:33.121Z,1.17
2022-08-03T08:33:01.101Z,1.27
2022-08-03T08:35:29.384Z,1.30
2022-08-03T08:37:57.403Z,1.02
2022-08-03T08:40:28.540Z,1.25
2022-08-03T08:42:58.794Z,1.20
2022-08-03T08:45:27.938Z,1.40
2022-08-03T08:48:01.105Z,1.50
2022-08-03T08:50:31.903Z,1.00
2022-08-03T08:53:03.644Z,1.50
2022-08-03T08:55:59.178Z,1.20
2022-08-03T08:58:24.400Z,1.63
2022-08-03T09:00:52.678Z,1.48
2022-08-03T09:03:25.239Z,1.60
2022-08-03T09:06:00.971Z,1.90
2022-08-03T09:08:30.192Z,1.83
2022-08-03T09:10:59.779Z,1.23
2022-08-03T09:13:27.852Z,1.20
2022-08-03T09:16:12.977Z,1.40
2022-08-03T09:18:41.968Z,1.00
2022-08-03T09:21:31.282Z,1.02
2022-08-03T09:24:04.414Z,1.45
2022-08-03T09:26:38.202Z,1.20
2022-08-03T09:29:13.472Z,1.52
2022-08-03T09:31:45.002Z,1.40
2022-08-03T09:34:14.816Z,1.48
2022-08-03T09:36:45.080Z,1.48
2022-08-03T09:39:15.132Z,1.00
2022-08-03T09:41:46.279Z,1.42
2022-08-03T09:44:24.340Z,1.33
2022-08-03T09:46:55.579Z,1.45
2022-08-03T09:49:24.818Z,1.30
2022-08-03T09:52:33.283Z,1.05
2022-08-03T09:54:42.490Z,1.10
2022-08-03T09:57:22.369Z,1.70
2022-08-03T09:59:53.812Z,1.50
2022-08-03T10:02:26.252Z,1.30
2022-08-03T10:04:55.284Z,1.38
2022-08-03T10:07:25.062Z,1.38
2022-08-03T10:09:58.050Z,1.30
2022-08-03T10:12:49.383Z,1.33
2022-08-03T10:16:21.601Z,1.30
2022-08-03T10:18:06.111Z,1.30
2022-08-03T10:20:38.399Z,1.20
2022-08-03T10:23:08.903Z,1.23
2022-08-03T10:25:39.031Z,1.10
2022-08-03T10:28:10.139Z,1.30
2022-08-03T10:30:41.494Z,1.45
2022-08-03T10:33:50.823Z,0.95
2022-08-03T10:36:06.159Z,0.90
2022-08-03T10:38:38.339Z,1.00
2022-08-03T10:41:08.989Z,1.20
2022-08-03T10:43:49.288Z,1.30
2022-08-03T10:46:19.859Z,1.55
2022-08-03T10:48:49.002Z,1.30
2022-08-03T10:51:17.634Z,1.02
2022-08-03T10:53:54.397Z,1.00
2022-08-03T10:57:05.618Z,1.20
2022-08-03T11:00:02.537Z,0.90
2022-08-03T11:03:06.842Z,1.20
2022-08-03T11:05:37.167Z,1.08
2022-08-03T11:08:30.904Z,0.82
2022-08-03T11:11:02.425Z,1.30
2022-08-03T11:13:33.921Z,1.00
2022-08-03T11:16:21.935Z,0.93
2022-08-03T11:19:01.209Z,0.85
2022-08-03T11:22:07.002Z,1.10
2022-08-03T11:25:01.961Z,1.00
2022-08-03T11:27:32.270Z,1.10
2022-08-03T11:30:04.657Z,1.02
2022-08-03T11:32:58.168Z,1.20
2022-08-03T11:35:29.276Z,0.90
2022-08-03T11:38:13.092Z,1.08
2022-08-03T11:40:44.797Z,1.00
2022-08-03T11:43:46.088Z,1.10
2022-08-03T11:46:29.473Z,1.30
2022-08-03T11:49:10.400Z,1.00
2022-08-03T11:51:40.329Z,1.30
2022-08-03T11:54:09.315Z,1.00
2022-08-03T11:56:46.234Z,1.15
2022-08-03T11:59:20.010Z,1.20
2022-08-03T12:01:49.177Z,0.98
2022-08-03T12:04:18.506Z,1.13
2022-08-03T12:06:59.527Z,1.20
2022-08-03T12:09:27.569Z,0.70
2022-08-03T12:12:00.330Z,0.80
2022-08-03T12:14:51.064Z,0.70
2022-08-03T12:17:18.823Z,0.90
2022-08-03T12:19:48.311Z,1.02
2022-08-03T12:22:17.197Z,0.60
2022-08-03T12:24:47.483Z,0.98
2022-08-03T12:27:24.754Z,1.00
2022-08-03T12:29:58.372Z,0.70
2022-08-03T12:32:27.492Z,0.90
2022-08-03T12:35:01.845Z,0.77
2022-08-03T12:37:30.683Z,0.70
2022-08-03T12:40:08.004Z,0.93
2022-08-03T12:42:39.790Z,0.80
2022-08-03T12:45:24.767Z,0.90
2022-08-03T12:47:56.465Z,0.60
2022-08-03T12:50:31.458Z,0.70
2022-08-03T12:53:00.504Z,0.70
2022-08-03T12:55:57.709Z,0.93
2022-08-03T12:58:34.644Z,0.70
2022-08-03T13:01:09.677Z,0.50
2022-08-03T13:03:45.886Z,0.60
2022-08-03T13:06:22.354Z,0.50
2022-08-03T13:08:51.984Z,0.65
2022-08-03T13:11:55.693Z,0.85
2022-08-03T13:14:13.447Z,0.60
2022-08-03T13:16:45.064Z,0.50
2022-08-03T13:19:15.466Z,0.47
2022-08-03T13:21:53.849Z,0.75
2022-08-03T13:24:34.588Z,0.60
2022-08-03T13:28:02.454Z,0.68
2022-08-03T13:29:53.524Z,0.50
2022-08-03T13:32:22.477Z,0.55
2022-08-03T13:34:50.926Z,0.63
2022-08-03T13:37:22.182Z,0.57
2022-08-03T13:39:59.042Z,0.60
2022-08-03T13:42:29.932Z,0.57
2022-08-03T13:44:58.586Z,0.52
2022-08-03T13:47:26.685Z,0.80
2022-08-03T13:50:01.927Z,0.82
2022-08-03T13:52:34.055Z,1.92
2022-08-03T13:55:04.250Z,1.10
2022-08-03T13:58:02.973Z,0.70
2022-08-03T14:00:29.280Z,0.63
2022-08-03T14:03:05.199Z,1.00
2022-08-03T14:05:36.145Z,0.50
2022-08-03T14:08:07.042Z,0.55
2022-08-03T14:10:38.380Z,0.85
2022-08-03T14:13:09.105Z,0.50
2022-08-03T14:15:38.460Z,0.40
2022-08-03T14:18:12.894Z,0.50
2022-08-03T14:20:50.297Z,0.50
2022-08-03T14:23:23.888Z,0.60
2022-08-03T14:25:53.203Z,0.55
2022-08-03T14:28:24.941Z,0.50
2022-08-03T14:30:54.403Z,0.60
2022-08-03T14:33:23.119Z,0.70
2022-08-03T14:35:51.759Z,0.40
2022-08-03T14:38:21.147Z,0.60
2022-08-03T14:40:51.784Z,0.60
2022-08-03T14:43:22.887Z,0.50
2022-08-03T14:45:53.975Z,0.55
2022-08-03T14:50:29.532Z,0.50
2022-08-03T14:51:11.873Z,0.70
2022-08-03T14:53:40.019Z,0.68
2022-08-03T14:56:10.718Z,0.40
2022-08-03T14:59:02.527Z,0.63
2022-08-03T15:02:04.298Z,0.55
2022-08-03T15:04:18.697Z,0.70
2022-08-03T15:06:46.668Z,0.68
2022-08-03T15:09:23.939Z,0.68
2022-08-03T15:11:54.039Z,0.93
2022-08-03T15:14:28.354Z,0.60
2022-08-03T15:17:01.298Z,1.05
2022-08-03T15:20:03.241Z,0.70
2022-08-03T15:22:20.794Z,0.77
2022-08-03T15:24:54.171Z,0.80
2022-08-03T15:27:23.759Z,0.90
2022-08-03T15:30:06.147Z,0.70
2022-08-03T15:32:38.426Z,0.88
2022-08-03T15:35:07.713Z,0.77
2022-08-03T15:37:35.759Z,0.73
2022-08-03T15:40:04.389Z,1.40
2022-08-03T15:42:34.478Z,1.20
2022-08-03T15:45:02.709Z,1.38
2022-08-03T15:47:30.819Z,1.23
2022-08-03T15:49:59.008Z,1.27
2022-08-03T15:52:28.118Z,1.33
2022-08-03T15:54:56.288Z,1.50
2022-08-03T15:57:24.308Z,1.63
2022-08-03T15:59:54.023Z,1.50
2022-08-03T16:02:22.538Z,1.40
2022-08-03T16:04:50.580Z,1.20
2022-08-03T16:07:38.966Z,1.75
2022-08-03T16:10:08.127Z,1.20
2022-08-03T16:12:36.405Z,1.05
2022-08-03T16:15:07.605Z,0.98
2022-08-03T16:17:35.824Z,1.15
2022-08-03T16:20:10.629Z,1.20
2022-08-03T16:22:45.987Z,1.02
2022-08-03T16:25:16.388Z,1.20
2022-08-03T16:28:03.305Z,1.30
2022-08-03T16:30:36.103Z,1.02
2022-08-03T16:33:05.165Z,1.08
2022-08-03T16:35:33.694Z,1.10
2022-08-03T16:38:05.383Z,1.42
2022-08-03T16:40:36.362Z,1.40
2022-08-03T16:43:19.710Z,1.40
2022-08-03T16:45:49.553Z,1.25
2022-08-03T16:48:18.733Z,1.25
2022-08-03T16:50:47.365Z,1.40
2022-08-03T16:53:17.523Z,1.40
2022-08-03T16:56:02.974Z,1.15
2022-08-03T16:58:41.749Z,1.25
2022-08-03T17:01:22.246Z,1.20
2022-08-03T17:04:03.674Z,1.27
2022-08-03T17:06:36.337Z,1.08
2022-08-03T17:09:08.710Z,1.58
2022-08-03T17:11:44.058Z,1.42
2022-08-03T17:14:15.714Z,1.33
2022-08-03T17:16:52.013Z,1.08
2022-08-03T17:19:23.507Z,1.00
2022-08-03T17:21:58.886Z,1.10
2022-08-03T17:27:01.142Z,1.30
2022-08-03T17:29:30.070Z,1.58
2022-08-03T17:32:06.563Z,1.27
2022-08-03T17:34:38.613Z,1.40
2022-08-03T17:37:27.393Z,1.20
2022-08-03T17:39:59.217Z,1.35
2022-08-03T17:42:32.965Z,1.55
2022-08-03T17:45:03.818Z,1.10
2022-08-03T17:47:42.198Z,1.75
2022-08-03T17:50:25.328Z,1.67
2022-08-03T17:53:07.095Z,1.20
2022-08-03T17:55:58.986Z,1.30
2022-08-03T17:58:56.389Z,1.30
2022-08-03T18:02:03.401Z,1.30
2022-08-03T18:04:42.111Z,1.10
2022-08-03T18:07:12.738Z,1.20
2022-08-03T18:10:03.194Z,1.25
2022-08-03T18:12:41.457Z,1.60
2022-08-03T18:15:21.311Z,1.10
2022-08-03T18:18:10.533Z,1.38
2022-08-03T18:20:42.291Z,1.10
2022-08-03T18:23:25.444Z,1.20
2022-08-03T18:26:01.195Z,1.13
2022-08-03T18:28:30.080Z,1.30
2022-08-03T18:30:58.558Z,1.40
2022-08-03T18:34:16.802Z,1.50
2022-08-03T18:39:06.885Z,1.40
2022-08-03T18:41:36.884Z,1.30
2022-08-03T18:44:08.747Z,1.40
2022-08-03T18:46:54.090Z,1.55
2022-08-03T18:49:38.615Z,1.23
2022-08-03T18:52:16.236Z,1.17
2022-08-03T18:55:02.368Z,1.30
2022-08-03T18:57:46.469Z,1.40
2022-08-03T19:00:17.268Z,1.30
2022-08-03T19:02:57.027Z,1.38
2022-08-03T19:05:51.615Z,1.50
2022-08-03T19:08:25.979Z,2.75
2022-08-03T19:10:57.764Z,2.05
2022-08-03T19:13:36.599Z,2.25
2022-08-03T19:18:38.042Z,1.85
2022-08-03T19:21:15.753Z,1.83
2022-08-03T19:23:47.540Z,1.70
2022-08-03T19:26:30.137Z,1.50
2022-08-03T19:29:00.361Z,1.98
2022-08-03T19:31:30.976Z,1.95
2022-08-03T19:34:04.125Z,1.70
2022-08-03T19:36:40.519Z,1.52
2022-08-03T19:39:14.522Z,1.25
2022-08-03T19:41:47.301Z,2.10
2022-08-03T19:44:26.746Z,1.33
2022-08-03T19:46:59.267Z,1.50
2022-08-03T19:49:56.990Z,1.60
2022-08-03T19:52:24.333Z,2.85
2022-08-03T19:55:00.656Z,2.00
2022-08-03T19:59:58.165Z,4.22
2022-08-03T20:02:29.805Z,4.32
2022-08-03T20:04:59.745Z,11.73
2022-08-03T20:07:30.537Z,5.30
2022-08-03T20:10:01.776Z,5.85
2022-08-03T20:12:35.581Z,3.88
2022-08-03T20:15:10.915Z,4.10
2022-08-03T20:17:56.019Z,10.38
2022-08-03T20:20:28.330Z,7.22
2022-08-03T20:22:59.425Z,4.53
2022-08-03T20:25:38.217Z,9.63
2022-08-03T20:28:14.278Z,9.43
2022-08-03T20:30:47.132Z,5.53
2022-08-03T20:33:18.273Z,4.32
2022-08-03T20:35:49.295Z,2.63
2022-08-03T20:38:18.629Z,1.75
2022-08-03T20:40:48.909Z,1.75
2022-08-03T20:43:52.034Z,1.67
2022-08-03T20:46:32.658Z,1.60
2022-08-03T20:49:06.046Z,1.33
2022-08-03T20:51:50.297Z,1.50
2022-08-03T20:54:29.134Z,1.50
2022-08-03T20:57:04.106Z,1.08
2022-08-03T20:59:50.641Z,1.40
2022-08-03T21:04:57.621Z,1.33
2022-08-03T21:08:04.046Z,1.20
2022-08-03T21:10:17.978Z,1.10
2022-08-03T21:12:53.089Z,1.55
2022-08-03T21:13:04.309Z,1.75
2022-08-03T21:16:01.125Z,1.48
2022-08-03T21:18:16.185Z,1.20
2022-08-03T21:20:46.423Z,1.25
2022-08-03T21:23:39.732Z,1.30
2022-08-03T21:26:05.501Z,1.40
2022-08-03T21:28:35.462Z,1.10
2022-08-03T21:31:04.135Z,1.50
2022-08-03T21:33:32.685Z,1.42
2022-08-03T21:36:03.428Z,1.17
2022-08-03T21:38:32.832Z,1.60
2022-08-03T21:41:02.087Z,1.27
2022-08-03T21:43:30.001Z,1.13
2022-08-03T21:46:05.792Z,1.48
2022-08-03T21:48:38.671Z,1.98
2022-08-03T21:51:08.600Z,1.90
2022-08-03T21:54:02.341Z,1.85
2022-08-03T21:56:26.397Z,1.80
2022-08-03T21:58:56.049Z,1.58
2022-08-03T22:01:27.703Z,1.60
2022-08-03T22:04:09.336Z,2.55
2022-08-03T22:06:42.611Z,1.70
2022-08-03T22:09:10.577Z,1.52
2022-08-03T22:11:38.888Z,1.35
2022-08-03T22:14:06.983Z,1.40
2022-08-03T22:16:36.593Z,1.33
2022-08-03T22:19:04.733Z,1.45
2022-08-03T22:21:36.639Z,1.58
2022-08-03T22:24:06.245Z,1.45
2022-08-03T22:26:36.042Z,1.60
2022-08-03T22:29:08.233Z,1.60
2022-08-03T22:31:58.126Z,1.40
2022-08-03T22:34:27.680Z,1.55
2022-08-03T22:36:57.305Z,1.80
2022-08-03T22:39:29.302Z,1.50
2022-08-03T22:41:59.252Z,1.20
2022-08-03T22:44:27.903Z,1.50
2022-08-03T22:46:58.040Z,1.40
2022-08-03T22:49:28.421Z,1.60
2022-08-03T22:51:57.991Z,1.60
2022-08-03T22:54:26.081Z,1.67
2022-08-03T22:56:53.894Z,1.48
2022-08-03T22:59:41.469Z,1.42
2022-08-03T23:02:20.895Z,1.60
2022-08-03T23:04:51.669Z,1.20
2022-08-03T23:07:27.805Z,1.63
2022-08-03T23:09:56.926Z,1.20
2022-08-03T23:12:24.704Z,1.30
2022-08-03T23:14:54.970Z,1.38
2022-08-03T23:17:26.584Z,1.08
2022-08-03T23:19:56.410Z,1.33
2022-08-03T23:22:30.101Z,1.42
2022-08-03T23:24:59.890Z,1.02
2022-08-03T23:27:28.263Z,1.23
2022-08-03T23:29:57.972Z,1.42
2022-08-03T23:32:29.032Z,1.35
2022-08-03T23:35:18.102Z,1.42
2022-08-03T23:38:04.537Z,1.20
2022-08-03T23:40:35.379Z,1.30
2022-08-03T23:43:04.006Z,1.20
2022-08-03T23:45:36.495Z,1.40
2022-08-03T23:48:07.096Z,1.65
2022-08-03T23:50:43.738Z,1.58
2022-08-03T23:53:18.706Z,1.70
2022-08-03T23:55:57.110Z,1.33
2022-08-03T23:58:47.540Z,1.15
